| time (UTC) | temp F | wind direction | speed MPH | gust MPH | rain 1hr in | rain 24hr in | rain mn in | humidity % | barometer mb |
| 20260906161538 | 92 | 44 | 0.0 | 1.0 | 0.00 | 0.00 | 0.00 | 60 | 993.5 |
| 20260906160040 | 92 | 43 | 0.0 | 1.0 | 0.00 | 0.00 | 0.00 | 63 | 993.6 |
| 20260906154544 | 90 | 359 | 0.0 | 1.0 | 0.00 | 0.00 | 0.00 | 66 | 993.6 |
| 20260906153026 | 89 | 359 | 0.0 | 1.0 | 0.00 | 0.00 | 0.00 | 68 | 993.4 |
| 20260906151523 | 87 | 359 | 0.0 | 1.0 | 0.00 | 0.00 | 0.00 | 71 | 993.3 |
| 20260906150022 | 86 | 41 | 0.0 | 1.0 | 0.00 | 0.00 | 0.00 | 72 | 993.3 |
| 20260906144516 | 85 | 38 | 0.0 | 1.0 | 0.00 | 0.00 | 0.00 | 74 | 993.3 |
| 20260906143012 | 84 | 34 | 0.0 | 1.0 | 0.00 | 0.00 | 0.00 | 77 | 993.2 |
| 20260906141508 | 82 | 64 | 0.0 | 2.0 | 0.00 | 0.00 | 0.00 | 80 | 993.3 |
| 20260906140010 | 81 | 93 | 0.0 | 1.0 | 0.00 | 0.00 | 0.00 | 82 | 993.3 |
| 20260906134505 | 80 | 60 | 0.0 | 1.0 | 0.00 | 0.00 | 0.00 | 83 | 993.2 |
| 20260906133004 | 79 | 69 | 0.0 | 1.0 | 0.00 | 0.00 | 0.00 | 86 | 993.0 |
| 20260906131507 | 78 | 70 | 0.0 | 1.0 | 0.00 | 0.00 | 0.00 | 88 | 993.0 |
| 20260906130005 | 77 | 83 | 0.0 | 1.0 | 0.00 | 0.00 | 0.00 | 89 | 992.9 |
| 20260906124604 | 76 | 166 | 0.0 | 1.0 | 0.00 | 0.00 | 0.00 | 90 | 992.7 |
| 20260906123103 | 76 | 77 | 0.0 | 1.0 | 0.00 | 0.00 | 0.00 | 92 | 992.5 |
| 20260906121558 | 75 | 28 | 0.0 | 0.0 | 0.00 | 0.00 | 0.00 | 90 | 992.6 |
| 20260906120101 | 76 | 75 | 0.0 | 1.0 | 0.00 | 0.00 | 0.00 | 91 | 992.3 |
| 20260906114555 | 75 | 79 | 0.0 | 0.0 | 0.00 | 0.00 | 0.00 | 90 | 992.3 |
| 20260906113053 | 76 | 25 | 0.0 | 0.0 | 0.00 | 0.00 | 0.00 | 90 | 992.3 |
| 20260906111552 | 76 | 49 | 0.0 | 0.0 | 0.00 | 0.00 | 0.00 | 90 | 992.2 |
| 20260906110051 | 76 | 359 | 0.0 | 1.0 | 0.00 | 0.00 | 0.00 | 90 | 992.0 |
| 20260906104547 | 77 | 73 | 0.0 | 1.0 | 0.00 | 0.00 | 0.00 | 89 | 991.9 |
| 20260906103047 | 77 | 65 | 0.0 | 1.0 | 0.00 | 0.00 | 0.00 | 89 | 991.9 |
| 20260906101546 | 77 | 25 | 0.0 | 1.0 | 0.00 | 0.00 | 0.00 | 90 | 991.8 |
| 20260906100045 | 77 | 103 | 0.0 | 1.0 | 0.00 | 0.00 | 0.00 | 90 | 991.8 |
| 20260906094543 | 77 | 50 | 0.0 | 1.0 | 0.00 | 0.00 | 0.00 | 89 | 991.5 |
| 20260906093043 | 78 | 34 | 0.0 | 1.0 | 0.00 | 0.00 | 0.00 | 88 | 991.3 |
| 20260906091541 | 78 | 77 | 0.0 | 1.0 | 0.00 | 0.00 | 0.00 | 87 | 991.3 |
| 20260906090039 | 78 | 37 | 0.0 | 1.0 | 0.00 | 0.00 | 0.00 | 87 | 991.3 |
| 20260906084538 | 79 | 50 | 0.0 | 1.0 | 0.00 | 0.00 | 0.00 | 87 | 991.2 |
| 20260906083041 | 79 | 112 | 0.0 | 0.0 | 0.00 | 0.00 | 0.00 | 87 | 991.2 |
| 20260906081538 | 79 | 128 | 0.0 | 1.0 | 0.00 | 0.00 | 0.00 | 87 | 991.4 |
| 20260906080035 | 79 | 95 | 0.0 | 1.0 | 0.00 | 0.00 | 0.00 | 86 | 991.4 |
| 20260906074536 | 79 | 163 | 0.0 | 1.0 | 0.00 | 0.00 | 0.00 | 86 | 991.4 |
| 20260906073035 | 79 | 90 | 0.0 | 1.0 | 0.00 | 0.00 | 0.00 | 85 | 991.4 |
| 20260906071531 | 80 | 83 | 0.0 | 1.0 | 0.00 | 0.00 | 0.00 | 85 | 991.5 |
| 20260906070031 | 80 | 106 | 0.0 | 1.0 | 0.00 | 0.00 | 0.00 | 85 | 991.5 |
| 20260906064534 | 80 | 101 | 0.0 | 1.0 | 0.00 | 0.00 | 0.00 | 85 | 991.4 |
| 20260906063027 | 80 | 104 | 0.0 | 1.0 | 0.00 | 0.00 | 0.00 | 84 | 991.4 |
| 20260906061526 | 80 | 62 | 0.0 | 1.0 | 0.00 | 0.00 | 0.00 | 83 | 991.8 |
| 20260906060028 | 80 | 104 | 0.0 | 1.0 | 0.00 | 0.00 | 0.00 | 82 | 991.9 |
| 20260906054522 | 81 | 86 | 0.0 | 2.0 | 0.00 | 0.00 | 0.00 | 81 | 991.9 |
| 20260906053027 | 81 | 51 | 0.0 | 2.0 | 0.00 | 0.00 | 0.00 | 80 | 991.7 |
| 20260906051522 | 82 | 359 | 0.0 | 2.0 | 0.00 | 0.00 | 0.00 | 79 | 991.9 |
| 20260906050044 | 82 | 73 | 0.0 | 1.0 | 0.00 | 0.00 | 0.00 | 77 | 991.6 |
| 20260906044515 | 82 | 52 | 0.0 | 2.0 | 0.00 | 0.00 | 0.00 | 77 | 991.5 |
| 20260906043015 | 83 | 104 | 0.0 | 1.0 | 0.00 | 0.00 | 0.00 | 77 | 991.5 |
| 20260906041517 | 83 | 123 | 0.0 | 1.0 | 0.00 | 0.00 | 0.00 | 76 | 991.6 |
| 20260906040015 | 83 | 24 | 0.0 | 2.0 | 0.00 | 0.00 | 0.00 | 75 | 991.8 |
| 20260906034514 | 84 | 73 | 0.0 | 1.0 | 0.00 | 0.00 | 0.00 | 74 | 991.8 |
| 20260906033016 | 84 | 90 | 0.0 | 1.0 | 0.00 | 0.00 | 0.00 | 74 | 991.7 |
| 20260906031519 | 84 | 87 | 0.0 | 1.0 | 0.00 | 0.00 | 0.00 | 73 | 991.7 |
| 20260906030012 | 85 | 137 | 0.0 | 1.0 | 0.00 | 0.00 | 0.00 | 72 | 991.6 |
| 20260906024511 | 85 | 125 | 0.0 | 1.0 | 0.00 | 0.00 | 0.00 | 71 | 991.5 |
| 20260906023011 | 85 | 53 | 0.0 | 2.0 | 0.00 | 0.00 | 0.00 | 71 | 991.4 |
| 20260906021511 | 85 | 97 | 0.0 | 2.0 | 0.00 | 0.00 | 0.00 | 70 | 991.2 |
| 20260906020011 | 86 | 26 | 0.0 | 9.0 | 0.00 | 0.00 | 0.00 | 70 | 991.1 |
| 20260906014511 | 86 | 90 | 0.0 | 2.0 | 0.00 | 0.00 | 0.00 | 69 | 990.9 |
| 20260906013011 | 86 | 54 | 0.0 | 2.0 | 0.00 | 0.00 | 0.00 | 67 | 990.7 |
| 20260906011508 | 87 | 28 | 0.0 | 2.0 | 0.00 | 0.00 | 0.00 | 66 | 990.3 |
| 20260906010009 | 87 | 45 | 0.0 | 3.0 | 0.00 | 0.00 | 0.00 | 64 | 990.3 |
| 20260906004508 | 88 | 21 | 0.0 | 13.0 | 0.00 | 0.00 | 0.00 | 64 | 990.4 |
| 20260906003007 | 89 | 29 | 0.0 | 10.0 | 0.00 | 0.00 | 0.00 | 62 | 990.5 |
| 20260906001506 | 91 | 22 | 1.0 | 16.0 | 0.00 | 0.00 | 0.00 | 58 | 990.2 |
| 20260906000006 | 94 | 359 | 2.0 | 12.0 | 0.00 | 0.00 | 0.00 | 53 | 990.0 |
| 20260905234504 | 94 | 45 | 0.0 | 14.0 | 0.00 | 0.00 | 0.00 | 53 | 989.8 |
| 20260905233005 | 97 | 62 | 5.0 | 13.0 | 0.00 | 0.00 | 0.00 | 49 | 989.6 |
| 20260905231504 | 98 | 4 | 0.0 | 1.0 | 0.00 | 0.00 | 0.00 | 46 | 989.5 |
| 20260905230003 | 97 | 23 | 0.0 | 2.0 | 0.00 | 0.00 | 0.00 | 47 | 989.6 |
| 20260905224504 | 98 | 21 | 0.0 | 9.0 | 0.00 | 0.00 | 0.00 | 46 | 989.4 |
| 20260905223002 | 98 | 45 | 0.0 | 1.0 | 0.00 | 0.00 | 0.00 | 44 | 989.4 |
| 20260905221501 | 99 | 359 | 0.0 | 1.0 | 0.00 | 0.00 | 0.00 | 44 | 989.3 |
| 20260905214606 | 96 | 225 | 0.0 | 1.0 | 0.00 | 0.00 | 0.00 | 46 | 989.6 |
| 20260905213102 | 96 | 359 | 0.0 | 1.0 | 0.00 | 0.00 | 0.00 | 48 | 989.7 |
| 20260905211556 | 97 | 359 | 0.0 | 2.0 | 0.00 | 0.00 | 0.00 | 46 | 989.8 |
| 20260905210053 | 99 | 359 | 0.0 | 1.0 | 0.00 | 0.00 | 0.00 | 44 | 990.0 |
| 20260905204552 | 98 | 359 | 0.0 | 1.0 | 0.00 | 0.00 | 0.00 | 44 | 990.1 |
| 20260905203050 | 98 | 294 | 0.0 | 2.0 | 0.00 | 0.00 | 0.00 | 43 | 990.4 |
| 20260905201549 | 100 | 152 | 0.0 | 3.0 | 0.00 | 0.00 | 0.00 | 42 | 990.5 |
| 20260905200054 | 99 | 274 | 0.0 | 2.0 | 0.00 | 0.00 | 0.00 | 42 | 990.7 |
| 20260905194546 | 100 | 104 | 0.0 | 2.0 | 0.00 | 0.00 | 0.00 | 42 | 990.8 |
| 20260905193042 | 100 | 166 | 0.0 | 1.0 | 0.00 | 0.00 | 0.00 | 43 | 991.2 |
| 20260905191540 | 98 | 359 | 0.0 | 1.0 | 0.00 | 0.00 | 0.00 | 45 | 991.5 |
| 20260905190038 | 97 | 45 | 0.0 | 2.0 | 0.00 | 0.00 | 0.00 | 45 | 991.8 |
| 20260905184539 | 95 | 359 | 0.0 | 1.0 | 0.00 | 0.00 | 0.00 | 48 | 992.0 |
| 20260905183038 | 99 | 31 | 0.0 | 2.0 | 0.00 | 0.00 | 0.00 | 46 | 992.2 |
| 20260905181536 | 98 | 359 | 0.0 | 2.0 | 0.00 | 0.00 | 0.00 | 45 | 992.5 |
| 20260905180035 | 98 | 359 | 0.0 | 8.0 | 0.00 | 0.00 | 0.00 | 47 | 992.8 |
| 20260905174535 | 97 | 359 | 0.0 | 1.0 | 0.00 | 0.00 | 0.00 | 47 | 992.9 |
| 20260905173025 | 96 | 276 | 0.0 | 1.0 | 0.00 | 0.00 | 0.00 | 49 | 993.2 |
| 20260905171523 | 95 | 82 | 1.0 | 8.0 | 0.00 | 0.00 | 0.00 | 49 | 993.4 |
| 20260905170021 | 95 | 264 | 0.0 | 1.0 | 0.00 | 0.00 | 0.00 | 49 | 993.4 |
| 20260905164518 | 95 | 359 | 0.0 | 2.0 | 0.00 | 0.00 | 0.00 | 50 | 993.5 |
| 20260905163017 | 93 | 222 | 0.0 | 1.0 | 0.00 | 0.00 | 0.00 | 53 | 993.6 |